createdAt,value
2023-02-11T00:00:00.922Z,53.00
2023-02-11T00:05:04.862Z,53.04
2023-02-11T00:10:09.129Z,53.35
2023-02-11T00:15:12.291Z,52.99
2023-02-11T00:20:15.721Z,53.44
2023-02-11T00:25:18.687Z,53.39
2023-02-11T00:30:21.803Z,53.42
2023-02-11T00:35:24.913Z,53.60
2023-02-11T00:40:28.420Z,53.17
2023-02-11T00:45:31.517Z,53.33
2023-02-11T00:50:35.681Z,52.92
2023-02-11T00:55:39.344Z,53.02
2023-02-11T01:00:42.987Z,53.14
2023-02-11T01:05:46.315Z,53.36
2023-02-11T01:10:56.533Z,53.21
2023-02-11T01:16:00.148Z,53.11
2023-02-11T01:21:03.555Z,52.81
2023-02-11T01:26:06.900Z,52.82
2023-02-11T01:31:10.133Z,52.81
2023-02-11T01:36:13.452Z,52.73
2023-02-11T01:41:16.490Z,53.03
2023-02-11T01:46:29.086Z,52.87
2023-02-11T01:51:39.317Z,53.12
2023-02-11T01:56:47.158Z,53.26
2023-02-11T02:02:00.967Z,53.09
2023-02-11T02:07:11.277Z,52.67
2023-02-11T02:12:14.490Z,52.94
2023-02-11T02:17:46.481Z,53.13
2023-02-11T02:23:14.276Z,52.71
2023-02-11T02:28:35.226Z,52.66
2023-02-11T02:33:53.837Z,52.96
2023-02-11T02:39:08.532Z,53.24
2023-02-11T02:44:12.061Z,53.31
2023-02-11T02:49:16.770Z,52.84
2023-02-11T02:54:35.055Z,52.74
2023-02-11T03:00:11.419Z,53.08
2023-02-11T03:05:45.750Z,52.96
2023-02-11T03:10:52.846Z,52.80
2023-02-11T03:15:58.703Z,52.31
2023-02-11T03:21:05.682Z,52.17
2023-02-11T03:26:39.427Z,52.17
2023-02-11T03:32:10.041Z,52.11
2023-02-11T03:37:29.699Z,52.44
2023-02-11T03:42:38.410Z,52.17
2023-02-11T03:47:47.608Z,52.23
2023-02-11T03:52:51.894Z,52.50
2023-02-11T03:57:55.643Z,52.31
2023-02-11T04:02:59.349Z,52.34
2023-02-11T04:08:03.002Z,52.17
2023-02-11T04:13:06.261Z,52.31
2023-02-11T04:18:09.427Z,52.25
2023-02-11T04:23:12.485Z,52.56
2023-02-11T04:28:15.683Z,52.25
2023-02-11T04:33:18.803Z,52.26
2023-02-11T04:38:21.989Z,52.71
2023-02-11T04:43:25.018Z,52.74
2023-02-11T04:48:28.302Z,52.83
2023-02-11T04:53:31.496Z,52.68
2023-02-11T04:58:35.201Z,52.60
2023-02-11T05:03:38.529Z,52.15
2023-02-11T05:08:41.479Z,52.27
2023-02-11T05:13:44.516Z,52.54
2023-02-11T05:18:47.756Z,52.23
2023-02-11T05:23:51.004Z,51.92
2023-02-11T05:28:54.114Z,51.87
2023-02-11T05:33:57.320Z,52.23
2023-02-11T05:39:00.527Z,51.58
2023-02-11T05:44:03.767Z,51.52
2023-02-11T05:49:07.004Z,51.69
2023-02-11T05:54:10.162Z,51.80
2023-02-11T05:59:16.651Z,51.44
2023-02-11T06:04:19.844Z,51.38
2023-02-11T06:09:23.085Z,50.98
2023-02-11T06:14:26.095Z,50.76
2023-02-11T06:19:29.659Z,50.40
2023-02-11T06:24:58.523Z,49.92
2023-02-11T06:29:56.479Z,49.54
2023-02-11T06:34:59.798Z,50.11
2023-02-11T06:40:02.907Z,50.03
2023-02-11T06:45:08.453Z,50.13
2023-02-11T06:50:14.125Z,49.84
2023-02-11T06:55:17.511Z,50.06
2023-02-11T07:00:20.457Z,49.45
2023-02-11T07:05:23.685Z,49.69
2023-02-11T07:10:27.110Z,49.70
2023-02-11T07:15:30.313Z,49.46
2023-02-11T07:20:33.449Z,49.50
2023-02-11T07:25:37.067Z,49.40
2023-02-11T07:30:40.301Z,49.01
2023-02-11T07:35:43.280Z,48.70
2023-02-11T07:40:46.340Z,49.39
2023-02-11T07:45:49.771Z,49.28
2023-02-11T07:50:53.077Z,49.09
2023-02-11T07:55:56.202Z,49.34
2023-02-11T08:01:04.787Z,49.22
2023-02-11T08:06:14.033Z,48.32
2023-02-11T08:11:28.676Z,48.00
2023-02-11T08:16:35.268Z,48.15
2023-02-11T08:21:39.113Z,47.59
2023-02-11T08:26:42.828Z,47.67
2023-02-11T08:31:47.764Z,47.10
2023-02-11T08:36:51.349Z,47.79
2023-02-11T08:41:55.532Z,46.89
2023-02-11T08:46:58.642Z,47.42
2023-02-11T08:52:02.177Z,47.41
2023-02-11T08:57:08.174Z,46.95
2023-02-11T09:02:15.277Z,47.03
2023-02-11T09:07:18.474Z,47.68
2023-02-11T09:12:21.642Z,46.67
2023-02-11T09:17:24.871Z,46.66
2023-02-11T09:22:28.055Z,47.25
2023-02-11T09:27:31.214Z,46.87
2023-02-11T09:32:35.020Z,46.30
2023-02-11T09:37:38.296Z,46.48
2023-02-11T09:42:46.742Z,46.71
2023-02-11T09:47:58.463Z,47.13
2023-02-11T09:53:23.636Z,46.33
2023-02-11T09:58:30.118Z,45.72
2023-02-11T10:03:55.345Z,46.47
2023-02-11T10:09:29.240Z,46.59
2023-02-11T10:14:53.354Z,45.74
2023-02-11T10:20:29.691Z,46.34
2023-02-11T10:25:39.469Z,46.29
2023-02-11T10:30:53.418Z,46.12
2023-02-11T10:35:56.910Z,46.41
2023-02-11T10:41:00.167Z,46.09
2023-02-11T10:46:05.893Z,45.70
2023-02-11T10:51:23.571Z,46.10
2023-02-11T10:56:28.317Z,45.84
2023-02-11T11:01:51.803Z,46.14
2023-02-11T11:06:55.698Z,45.75
2023-02-11T11:11:58.957Z,46.21
2023-02-11T11:17:02.220Z,46.11
2023-02-11T11:22:05.909Z,45.86
2023-02-11T11:27:19.228Z,46.17
2023-02-11T11:32:30.079Z,46.41
2023-02-11T11:37:37.074Z,46.01
2023-02-11T11:42:40.516Z,45.57
2023-02-11T11:47:49.194Z,45.89
2023-02-11T11:53:04.683Z,45.65
2023-02-11T11:58:18.962Z,45.51
2023-02-11T12:03:37.609Z,45.96
2023-02-11T12:09:04.812Z,45.90
2023-02-11T12:14:32.227Z,45.50
2023-02-11T12:20:10.545Z,45.88
2023-02-11T12:25:39.314Z,45.68
2023-02-11T12:30:53.173Z,45.41
2023-02-11T12:36:26.180Z,45.35
2023-02-11T12:41:50.684Z,45.66
2023-02-11T12:47:09.666Z,45.59
2023-02-11T12:52:35.684Z,45.25
2023-02-11T12:57:43.754Z,45.15
2023-02-11T13:03:08.385Z,45.08
2023-02-11T13:08:35.612Z,45.40
2023-02-11T13:13:57.736Z,45.45
2023-02-11T13:19:13.121Z,45.43
2023-02-11T13:24:40.008Z,45.36
2023-02-11T13:30:18.491Z,45.24
2023-02-11T13:35:35.250Z,45.18
2023-02-11T13:40:39.906Z,45.64
2023-02-11T13:45:46.882Z,45.63
2023-02-11T13:50:54.559Z,45.20
2023-02-11T13:56:23.607Z,45.62
2023-02-11T14:02:20.415Z,45.39
2023-02-11T14:07:32.089Z,46.09
2023-02-11T14:12:35.620Z,45.75
2023-02-11T14:17:38.751Z,45.86
2023-02-11T14:22:49.762Z,46.17
2023-02-11T14:28:00.353Z,47.12
2023-02-11T14:33:24.467Z,47.29
2023-02-11T14:38:40.031Z,47.62
2023-02-11T14:43:51.374Z,47.98
2023-02-11T14:48:58.709Z,48.26
2023-02-11T14:54:17.619Z,48.95
2023-02-11T14:59:23.016Z,49.23
2023-02-11T15:04:34.082Z,49.37
2023-02-11T15:09:48.171Z,49.05
2023-02-11T15:14:54.886Z,50.36
2023-02-11T15:20:01.948Z,49.93
2023-02-11T15:25:12.419Z,50.65
2023-02-11T15:30:24.356Z,51.01
2023-02-11T15:35:37.781Z,50.21
2023-02-11T15:40:40.954Z,50.69
2023-02-11T15:45:59.936Z,50.81
2023-02-11T15:51:12.736Z,51.67
2023-02-11T15:56:26.172Z,51.47
2023-02-11T16:01:35.342Z,51.72
2023-02-11T16:06:42.836Z,51.79
2023-02-11T16:11:48.666Z,51.94
2023-02-11T16:16:55.473Z,52.39
2023-02-11T16:22:01.365Z,52.47
2023-02-11T16:27:16.878Z,52.98
2023-02-11T16:32:25.831Z,53.18
2023-02-11T16:37:29.003Z,52.95
2023-02-11T16:42:32.087Z,52.71
2023-02-11T16:47:35.971Z,53.33
2023-02-11T16:52:39.267Z,53.50
2023-02-11T16:57:42.375Z,53.98
2023-02-11T17:02:45.980Z,53.74
2023-02-11T17:07:50.130Z,54.23
2023-02-11T17:12:53.332Z,54.38
2023-02-11T17:17:56.510Z,53.78
2023-02-11T17:22:59.742Z,53.80
2023-02-11T17:28:04.063Z,53.45
2023-02-11T17:33:07.547Z,54.08
2023-02-11T17:38:11.299Z,54.46
2023-02-11T17:43:14.385Z,54.52
2023-02-11T17:48:17.561Z,54.73
2023-02-11T17:53:20.826Z,54.32
2023-02-11T17:58:24.141Z,54.39
2023-02-11T18:03:27.269Z,55.13
2023-02-11T18:08:30.944Z,55.28
2023-02-11T18:13:34.155Z,55.32
2023-02-11T18:18:37.371Z,55.72
2023-02-11T18:23:42.285Z,55.10
2023-02-11T18:28:46.089Z,55.14
2023-02-11T18:33:50.215Z,55.43
2023-02-11T18:38:53.691Z,56.07
2023-02-11T18:43:58.458Z,56.51
2023-02-11T18:49:01.617Z,56.84
2023-02-11T18:54:04.739Z,55.88
2023-02-11T18:59:07.850Z,56.44
2023-02-11T19:04:10.938Z,56.54
2023-02-11T19:09:17.525Z,56.93
2023-02-11T19:14:25.961Z,57.39
2023-02-11T19:19:31.467Z,57.53
2023-02-11T19:24:35.709Z,57.71
2023-02-11T19:29:39.137Z,57.95
2023-02-11T19:34:42.554Z,58.27
2023-02-11T19:39:45.571Z,57.63
2023-02-11T19:44:48.549Z,57.99
2023-02-11T19:49:51.632Z,57.62
2023-02-11T19:54:54.924Z,58.12
2023-02-11T19:59:58.418Z,58.41
2023-02-11T20:05:01.634Z,58.11
2023-02-11T20:10:06.715Z,58.91
2023-02-11T20:15:10.340Z,59.22
2023-02-11T20:20:13.545Z,59.24
2023-02-11T20:25:16.724Z,59.03
2023-02-11T20:30:20.005Z,59.40
2023-02-11T20:35:23.088Z,58.85
2023-02-11T20:40:26.310Z,59.24
2023-02-11T20:45:29.535Z,59.63
2023-02-11T20:50:33.651Z,59.08
2023-02-11T20:55:38.506Z,59.36
2023-02-11T21:00:41.716Z,59.74
2023-02-11T21:05:44.889Z,59.94
2023-02-11T21:10:48.768Z,59.55
2023-02-11T21:15:56.684Z,59.54
2023-02-11T21:21:00.680Z,59.77
2023-02-11T21:26:04.187Z,59.41
2023-02-11T21:31:07.322Z,59.25
2023-02-11T21:36:10.689Z,59.81
2023-02-11T21:41:13.911Z,59.77
2023-02-11T21:46:18.975Z,59.76
2023-02-11T21:51:24.601Z,59.60
2023-02-11T21:56:29.255Z,59.72
2023-02-11T22:01:34.396Z,60.06
2023-02-11T22:06:37.622Z,59.74
2023-02-11T22:11:40.794Z,60.04
2023-02-11T22:16:47.638Z,59.72
2023-02-11T22:21:50.716Z,59.57
2023-02-11T22:26:53.892Z,59.40
2023-02-11T22:31:57.242Z,59.33
2023-02-11T22:37:02.328Z,59.06
2023-02-11T22:42:06.089Z,59.15
2023-02-11T22:47:09.215Z,58.19
2023-02-11T22:52:12.358Z,57.39
2023-02-11T22:57:15.509Z,57.31
2023-02-11T23:02:18.859Z,58.14
2023-02-11T23:07:21.975Z,57.28
2023-02-11T23:12:25.179Z,56.52
2023-02-11T23:17:28.225Z,56.59
2023-02-11T23:22:31.283Z,55.62
2023-02-11T23:27:34.476Z,55.50
2023-02-11T23:32:40.432Z,54.54
2023-02-11T23:37:43.548Z,54.91
2023-02-11T23:42:47.253Z,55.02
2023-02-11T23:47:50.350Z,54.47
2023-02-11T23:52:53.493Z,55.15
2023-02-11T23:57:56.716Z,56.18
